Chilik Southeast Airfield

Jump to: basic info | weather | comments

Related pages: nearby airports | nearby navaids

Basic information (top)

Location: lon 43.223598, lat 78.732399, elev 4,497 ft / 1,371 m msl
Status: small_airport

Weather (top)

Current conditions for Almaty Airport 74nm (138km) W (rec'd 2014/11/23 15:00Z):

UAAA 231500Z 26002MPS 0350 R23R/1000U R23L/1000N BR FU SCT100 BKN200 01/M02 Q1014 R88/65D NOSIG

Airport forecast for Almaty Airport 74nm (138km) W (rec'd 2014/11/23 12:18Z):

TAF TAF UAAA 231100Z 2312/2412 16004MPS 0600 FZFG FU VV002 TX08/2408Z TNM04/2401Z 
      TEMPO 2312/2405 0200 VV001 
      BECMG 2405/2406 21005MPS 3000 BR SCT007 BKN020 
      TEMPO 2408/2412 26010MPS 5000 -SHRA BKN010CB OVC100

Latest comments (top)

Spelling: OK oK its Kazakhstan♄, so you have a ... [read]

Airfield: I came across this airfield on Google, ... [read]

More... (top)

See also NOTAMs and nearby airports and navaids, or visit the Chilik Southeast Airfield page at the main OurAirports website..